createdAt,value
2023-01-17T00:00:02.535Z,56.27
2023-01-17T00:01:02.425Z,56.31
2023-01-17T00:02:02.519Z,56.63
2023-01-17T00:03:02.460Z,56.83
2023-01-17T00:04:02.438Z,56.63
2023-01-17T00:05:02.434Z,56.01
2023-01-17T00:06:02.434Z,56.07
2023-01-17T00:07:02.394Z,56.65
2023-01-17T00:08:02.454Z,55.73
2023-01-17T00:09:02.373Z,55.88
2023-01-17T00:10:02.416Z,56.19
2023-01-17T00:11:02.374Z,55.69
2023-01-17T00:12:02.343Z,55.62
2023-01-17T00:13:02.367Z,56.61
2023-01-17T00:14:02.426Z,56.38
2023-01-17T00:15:02.341Z,61.43
2023-01-17T00:16:02.352Z,55.81
2023-01-17T00:17:02.321Z,55.34
2023-01-17T00:18:02.340Z,55.23
2023-01-17T00:19:02.310Z,56.21
2023-01-17T00:20:02.851Z,55.74
2023-01-17T00:21:02.280Z,56.09
2023-01-17T00:22:02.289Z,55.57
2023-01-17T00:23:02.307Z,56.35
2023-01-17T00:24:02.272Z,58.03
2023-01-17T00:25:02.295Z,55.48
2023-01-17T00:26:02.330Z,55.41
2023-01-17T00:27:02.263Z,59.59
2023-01-17T00:28:02.269Z,56.45
2023-01-17T00:29:02.258Z,57.20
2023-01-17T00:30:02.269Z,55.33
2023-01-17T00:31:02.306Z,55.17
2023-01-17T00:32:02.285Z,55.67
2023-01-17T00:33:02.235Z,55.46
2023-01-17T00:34:02.223Z,57.23
2023-01-17T00:35:02.205Z,60.20
2023-01-17T00:36:02.211Z,56.06
2023-01-17T00:37:02.200Z,56.64
2023-01-17T00:38:02.283Z,55.91
2023-01-17T00:39:02.200Z,55.38
2023-01-17T00:40:02.188Z,55.87
2023-01-17T00:41:02.182Z,58.10
2023-01-17T00:42:02.175Z,56.44
2023-01-17T00:43:02.150Z,55.93
2023-01-17T00:44:02.232Z,56.53
2023-01-17T00:45:02.167Z,55.81
2023-01-17T00:46:02.110Z,55.58
2023-01-17T00:47:02.168Z,55.78
2023-01-17T00:48:02.105Z,55.69
2023-01-17T00:49:02.111Z,56.56
2023-01-17T00:50:02.282Z,56.25
2023-01-17T00:51:02.122Z,56.13
2023-01-17T00:52:02.081Z,56.12
2023-01-17T00:53:02.080Z,55.81
2023-01-17T00:54:02.077Z,55.63
2023-01-17T00:55:02.124Z,56.14
2023-01-17T00:56:02.099Z,57.22
2023-01-17T00:57:02.065Z,56.22
2023-01-17T00:58:02.106Z,56.39
2023-01-17T00:59:02.019Z,55.91
2023-01-17T01:00:02.134Z,58.08
2023-01-17T01:01:02.093Z,56.03
2023-01-17T01:02:02.234Z,55.94
2023-01-17T01:03:02.003Z,56.05
2023-01-17T01:04:02.003Z,56.82
2023-01-17T01:05:01.987Z,55.84
2023-01-17T01:06:01.980Z,55.79
2023-01-17T01:07:01.954Z,55.90
2023-01-17T01:08:02.002Z,55.77
2023-01-17T01:09:01.958Z,56.29
2023-01-17T01:10:01.956Z,56.53
2023-01-17T01:11:01.944Z,55.48
2023-01-17T01:12:01.958Z,55.48
2023-01-17T01:13:01.921Z,56.26
2023-01-17T01:14:01.983Z,56.62
2023-01-17T01:15:01.914Z,55.63
2023-01-17T01:16:01.928Z,55.41
2023-01-17T01:17:01.914Z,56.82
2023-01-17T01:18:01.891Z,56.85
2023-01-17T01:19:01.890Z,57.08
2023-01-17T01:20:01.922Z,56.15
2023-01-17T01:21:01.875Z,55.90
2023-01-17T01:22:01.863Z,56.42
2023-01-17T01:23:01.865Z,56.92
2023-01-17T01:24:01.854Z,56.06
2023-01-17T01:25:01.847Z,56.19
2023-01-17T01:26:02.280Z,57.07
2023-01-17T01:27:01.833Z,56.39
2023-01-17T01:28:01.817Z,60.09
2023-01-17T01:29:01.830Z,57.20
2023-01-17T01:30:01.801Z,56.04
2023-01-17T01:31:01.799Z,56.84
2023-01-17T01:32:01.844Z,58.61
2023-01-17T01:33:01.781Z,56.99
2023-01-17T01:34:01.800Z,55.93
2023-01-17T01:35:01.791Z,55.83
2023-01-17T01:36:01.759Z,55.82
2023-01-17T01:37:01.762Z,58.14
2023-01-17T01:38:01.786Z,56.64
2023-01-17T01:39:01.754Z,56.52
2023-01-17T01:40:01.756Z,55.36
2023-01-17T01:41:01.733Z,55.12
2023-01-17T01:42:01.724Z,55.30
2023-01-17T01:43:01.733Z,55.44
2023-01-17T01:44:01.759Z,56.14
2023-01-17T01:45:01.701Z,56.81
2023-01-17T01:46:01.763Z,55.33
2023-01-17T01:47:01.688Z,55.70
2023-01-17T01:48:01.706Z,55.70
2023-01-17T01:49:01.678Z,57.01
2023-01-17T01:50:01.718Z,63.74
2023-01-17T01:51:01.689Z,56.58
2023-01-17T01:52:01.675Z,55.82
2023-01-17T01:53:01.647Z,56.04
2023-01-17T01:54:01.656Z,55.16
2023-01-17T01:55:01.635Z,55.74
2023-01-17T01:56:01.748Z,56.16
2023-01-17T01:57:01.630Z,56.28
2023-01-17T01:58:01.619Z,55.80
2023-01-17T01:59:01.603Z,57.80
2023-01-17T02:00:01.644Z,68.07
2023-01-17T02:01:01.731Z,67.89
2023-01-17T02:02:01.624Z,72.67
2023-01-17T02:03:01.582Z,60.92
2023-01-17T02:04:01.601Z,62.49
2023-01-17T02:05:04.524Z,56.29
2023-01-17T02:06:01.572Z,55.59
2023-01-17T02:07:01.571Z,55.81
2023-01-17T02:08:01.611Z,55.90
2023-01-17T02:09:01.547Z,55.58
2023-01-17T02:10:01.561Z,55.79
2023-01-17T02:11:01.541Z,56.54
2023-01-17T02:12:01.549Z,56.83
2023-01-17T02:13:01.544Z,57.44
2023-01-17T02:14:01.559Z,57.52
2023-01-17T02:15:01.481Z,56.70
2023-01-17T02:16:01.581Z,57.31
2023-01-17T02:17:01.483Z,56.55
2023-01-17T02:18:01.482Z,55.59
2023-01-17T02:19:01.519Z,57.45
2023-01-17T02:20:01.510Z,56.56
2023-01-17T02:21:01.481Z,56.30
2023-01-17T02:22:01.473Z,55.82
2023-01-17T02:23:01.486Z,56.13
2023-01-17T02:24:01.435Z,56.70
2023-01-17T02:25:01.438Z,57.44
2023-01-17T02:26:01.525Z,56.21
2023-01-17T02:27:01.421Z,56.38
2023-01-17T02:28:01.395Z,56.56
2023-01-17T02:29:01.419Z,61.22
2023-01-17T02:30:01.423Z,56.22
2023-01-17T02:31:01.384Z,56.27
2023-01-17T02:32:01.834Z,56.54
2023-01-17T02:33:01.368Z,58.24
2023-01-17T02:34:01.378Z,58.56
2023-01-17T02:35:01.396Z,56.08
2023-01-17T02:36:01.349Z,56.31
2023-01-17T02:37:01.347Z,57.48
2023-01-17T02:38:01.405Z,57.00
2023-01-17T02:39:01.339Z,57.03
2023-01-17T02:40:01.328Z,57.88
2023-01-17T02:41:01.319Z,58.20
2023-01-17T02:42:01.300Z,56.03
2023-01-17T02:43:01.296Z,55.49
2023-01-17T02:44:01.356Z,55.22
2023-01-17T02:45:01.290Z,55.54
2023-01-17T02:46:01.347Z,59.18
2023-01-17T02:47:01.276Z,57.03
2023-01-17T02:48:01.276Z,56.89
2023-01-17T02:49:01.252Z,56.91
2023-01-17T02:50:01.326Z,58.84
2023-01-17T02:51:01.246Z,56.21
2023-01-17T02:52:01.252Z,55.36
2023-01-17T02:53:01.240Z,55.85
2023-01-17T02:54:01.218Z,55.86
2023-01-17T02:55:01.237Z,57.97
2023-01-17T02:56:01.272Z,56.96
2023-01-17T02:57:01.193Z,56.58
2023-01-17T02:58:01.198Z,56.34
2023-01-17T02:59:01.197Z,55.76
2023-01-17T03:00:01.204Z,56.28
2023-01-17T03:01:01.286Z,57.30
2023-01-17T03:02:01.359Z,57.14
2023-01-17T03:03:01.180Z,56.92
2023-01-17T03:04:01.148Z,56.14
2023-01-17T03:05:01.148Z,57.72
2023-01-17T03:06:01.153Z,57.92
2023-01-17T03:07:01.126Z,56.15
2023-01-17T03:08:01.340Z,57.10
2023-01-17T03:09:01.131Z,58.91
2023-01-17T03:10:01.118Z,56.93
2023-01-17T03:11:01.128Z,58.73
2023-01-17T03:12:01.130Z,56.63
2023-01-17T03:13:01.096Z,57.39
2023-01-17T03:14:01.152Z,58.49
2023-01-17T03:15:01.078Z,57.51
2023-01-17T03:16:01.077Z,56.34
2023-01-17T03:17:01.074Z,55.51
2023-01-17T03:18:01.067Z,56.18
2023-01-17T03:19:01.064Z,57.00
2023-01-17T03:20:01.091Z,56.23
2023-01-17T03:21:01.038Z,56.77
2023-01-17T03:22:01.033Z,56.02
2023-01-17T03:23:01.016Z,56.62
2023-01-17T03:24:01.011Z,56.79
2023-01-17T03:25:01.026Z,56.87
2023-01-17T03:26:01.044Z,58.19
2023-01-17T03:27:00.996Z,57.09
2023-01-17T03:28:00.998Z,57.00
2023-01-17T03:29:01.015Z,59.07
2023-01-17T03:30:00.983Z,57.97
2023-01-17T03:31:01.024Z,58.48
2023-01-17T03:32:01.021Z,56.33
2023-01-17T03:33:00.944Z,58.13
2023-01-17T03:34:00.969Z,57.86
2023-01-17T03:35:01.000Z,57.87
2023-01-17T03:36:00.931Z,56.92
2023-01-17T03:37:00.936Z,56.40
2023-01-17T03:38:01.196Z,58.17
2023-01-17T03:39:00.918Z,58.25
2023-01-17T03:40:00.924Z,58.16
2023-01-17T03:41:00.885Z,58.89
2023-01-17T03:42:00.898Z,56.74
2023-01-17T03:43:00.900Z,56.42
2023-01-17T03:44:01.001Z,56.49
2023-01-17T03:45:00.866Z,55.84
2023-01-17T03:46:00.911Z,56.62
2023-01-17T03:47:00.883Z,56.84
2023-01-17T03:48:00.868Z,57.26
2023-01-17T03:49:00.835Z,56.44
2023-01-17T03:50:00.876Z,58.86
2023-01-17T03:51:00.847Z,60.43
2023-01-17T03:52:00.828Z,59.53
2023-01-17T03:53:00.805Z,56.85
2023-01-17T03:54:00.821Z,56.55
2023-01-17T03:55:00.799Z,55.93
2023-01-17T03:56:00.869Z,56.34
2023-01-17T03:57:00.799Z,57.29
2023-01-17T03:58:00.769Z,57.68
2023-01-17T03:59:00.787Z,56.18
2023-01-17T04:00:00.795Z,57.00
2023-01-17T04:01:00.875Z,57.28
2023-01-17T04:02:00.984Z,57.39
2023-01-17T04:03:00.761Z,57.76
2023-01-17T04:04:00.746Z,56.17
2023-01-17T04:05:00.731Z,58.27
2023-01-17T04:06:00.748Z,57.32
2023-01-17T04:07:00.707Z,57.22
2023-01-17T04:08:00.766Z,57.65
2023-01-17T04:09:00.712Z,57.06
2023-01-17T04:10:00.720Z,56.86
2023-01-17T04:11:00.705Z,57.05
2023-01-17T04:12:00.677Z,57.38
2023-01-17T04:13:00.693Z,57.14
2023-01-17T04:14:00.751Z,58.55
2023-01-17T04:15:00.678Z,57.25
2023-01-17T04:16:00.659Z,56.67
2023-01-17T04:17:00.663Z,58.98
2023-01-17T04:18:00.633Z,56.43
2023-01-17T04:19:00.631Z,58.26
2023-01-17T04:20:00.686Z,57.36
2023-01-17T04:21:00.614Z,59.15
2023-01-17T04:22:00.625Z,58.33
2023-01-17T04:23:00.653Z,58.46
2023-01-17T04:24:00.618Z,58.61
2023-01-17T04:25:00.586Z,57.06
2023-01-17T04:26:00.646Z,57.60
2023-01-17T04:27:00.583Z,57.50
2023-01-17T04:28:00.580Z,57.30
2023-01-17T04:29:00.581Z,59.22
2023-01-17T04:30:00.562Z,57.62
2023-01-17T04:31:00.615Z,57.89
2023-01-17T04:32:00.582Z,57.61
2023-01-17T04:33:00.546Z,59.61
2023-01-17T04:34:00.529Z,60.30
2023-01-17T04:35:00.531Z,58.47
2023-01-17T04:36:00.524Z,59.97
2023-01-17T04:37:00.511Z,59.60
2023-01-17T04:38:00.877Z,60.53
2023-01-17T04:39:00.493Z,58.49
2023-01-17T04:40:00.491Z,58.02
2023-01-17T04:41:00.489Z,60.18
2023-01-17T04:42:00.484Z,60.83
2023-01-17T04:43:00.461Z,59.57
2023-01-17T04:44:00.552Z,59.02
2023-01-17T04:45:00.473Z,58.55
2023-01-17T04:46:00.509Z,58.69
2023-01-17T04:47:00.430Z,60.70
2023-01-17T04:48:00.413Z,58.64
2023-01-17T04:49:00.444Z,59.79
2023-01-17T04:50:00.472Z,60.50
2023-01-17T04:51:00.417Z,60.37
2023-01-17T04:52:00.413Z,60.44
2023-01-17T04:53:00.419Z,59.95
2023-01-17T04:54:00.408Z,58.75
2023-01-17T04:55:00.375Z,60.23
2023-01-17T04:56:00.422Z,59.34
2023-01-17T04:57:00.386Z,58.99
2023-01-17T04:58:00.383Z,58.98
2023-01-17T04:59:00.368Z,58.47
2023-01-17T05:00:00.397Z,58.53
2023-01-17T05:01:00.382Z,59.47
2023-01-17T05:02:00.421Z,62.05
2023-01-17T05:03:00.334Z,60.11
2023-01-17T05:04:00.315Z,59.71
2023-01-17T05:05:00.330Z,57.81
2023-01-17T05:06:00.344Z,61.50
2023-01-17T05:07:00.295Z,58.23
2023-01-17T05:08:00.328Z,57.28
2023-01-17T05:09:00.283Z,58.65
2023-01-17T05:10:00.270Z,57.89
2023-01-17T05:11:00.259Z,59.47
2023-01-17T05:12:00.252Z,58.90
2023-01-17T05:13:00.258Z,65.90
2023-01-17T05:14:00.296Z,59.66
2023-01-17T05:15:00.240Z,61.46
2023-01-17T05:16:00.370Z,65.52
2023-01-17T05:17:00.235Z,60.53
2023-01-17T05:18:00.213Z,61.41
2023-01-17T05:19:00.220Z,59.21
2023-01-17T05:20:00.294Z,60.31
2023-01-17T05:21:00.195Z,60.89
2023-01-17T05:22:00.186Z,61.41
2023-01-17T05:23:00.203Z,59.44
2023-01-17T05:24:00.196Z,60.23
2023-01-17T05:25:00.165Z,59.39
2023-01-17T05:26:00.204Z,59.56
2023-01-17T05:27:00.161Z,57.81
2023-01-17T05:28:00.187Z,60.50
2023-01-17T05:29:00.151Z,57.49
2023-01-17T05:30:00.145Z,57.70
2023-01-17T05:31:00.196Z,58.03
2023-01-17T05:32:00.172Z,61.28
2023-01-17T05:33:00.104Z,58.65
2023-01-17T05:34:00.140Z,60.41
2023-01-17T05:35:00.103Z,59.96
2023-01-17T05:36:00.124Z,60.75
2023-01-17T05:37:00.093Z,60.61
2023-01-17T05:38:00.140Z,61.04
2023-01-17T05:39:00.089Z,61.01
2023-01-17T05:40:00.096Z,61.73
2023-01-17T05:41:00.083Z,64.10
2023-01-17T05:42:00.071Z,68.84
2023-01-17T05:43:00.033Z,72.57
2023-01-17T05:44:00.495Z,72.34
2023-01-17T05:45:00.048Z,67.80
2023-01-17T05:46:00.088Z,66.57
2023-01-17T05:47:00.011Z,64.93
2023-01-17T05:48:00.018Z,61.21
2023-01-17T05:49:00.026Z,61.35
2023-01-17T05:50:00.040Z,62.88
2023-01-17T05:51:00.009Z,60.12
2023-01-17T05:51:59.995Z,62.13
2023-01-17T05:52:59.985Z,61.10
2023-01-17T05:53:59.964Z,61.22
2023-01-17T05:54:59.977Z,61.02
2023-01-17T05:56:00.000Z,58.60
2023-01-17T05:56:59.948Z,62.82
2023-01-17T05:57:59.967Z,61.27
2023-01-17T05:58:59.957Z,61.05
2023-01-17T05:59:59.928Z,63.44
2023-01-17T06:00:59.941Z,63.72
2023-01-17T06:01:59.967Z,62.70
2023-01-17T06:02:59.980Z,60.78
2023-01-17T06:03:59.916Z,59.82
2023-01-17T06:05:02.454Z,59.00
2023-01-17T06:05:59.870Z,59.13
2023-01-17T06:06:59.863Z,61.47
2023-01-17T06:07:59.928Z,58.79
2023-01-17T06:08:59.855Z,60.50
2023-01-17T06:09:59.880Z,59.75
2023-01-17T06:10:59.837Z,61.59
2023-01-17T06:11:59.833Z,57.15
2023-01-17T06:12:59.822Z,60.62
2023-01-17T06:13:59.893Z,64.36
2023-01-17T06:14:59.856Z,60.53
2023-01-17T06:15:59.839Z,60.74
2023-01-17T06:16:59.794Z,60.58
2023-01-17T06:17:59.793Z,60.90
2023-01-17T06:18:59.790Z,62.20
2023-01-17T06:19:59.857Z,61.35
2023-01-17T06:20:59.764Z,61.90
2023-01-17T06:21:59.761Z,61.10
2023-01-17T06:22:59.774Z,61.50
2023-01-17T06:23:59.760Z,60.05
2023-01-17T06:24:59.747Z,61.96
2023-01-17T06:25:59.763Z,62.39
2023-01-17T06:26:59.767Z,62.45
2023-01-17T06:27:59.723Z,63.61
2023-01-17T06:28:59.741Z,61.97
2023-01-17T06:29:59.732Z,62.82
2023-01-17T06:30:59.719Z,64.20
2023-01-17T06:32:01.693Z,62.94
2023-01-17T06:32:59.708Z,60.96
2023-01-17T06:33:59.693Z,61.55
2023-01-17T06:34:59.679Z,61.48
2023-01-17T06:35:59.691Z,61.83
2023-01-17T06:36:59.663Z,60.79
2023-01-17T06:37:59.717Z,62.37
2023-01-17T06:38:59.662Z,62.06
2023-01-17T06:39:59.655Z,60.53
2023-01-17T06:40:59.630Z,62.36
2023-01-17T06:41:59.646Z,64.41
2023-01-17T06:42:59.625Z,63.50
2023-01-17T06:43:59.654Z,64.21
2023-01-17T06:44:59.632Z,63.87
2023-01-17T06:45:59.611Z,64.04
2023-01-17T06:46:59.610Z,62.97
2023-01-17T06:47:59.594Z,62.70
2023-01-17T06:48:59.585Z,62.82
2023-01-17T06:50:00.155Z,62.77
2023-01-17T06:50:59.629Z,63.15
2023-01-17T06:51:59.551Z,65.79
2023-01-17T06:52:59.580Z,65.29
2023-01-17T06:53:59.551Z,62.25
2023-01-17T06:54:59.535Z,64.02
2023-01-17T06:55:59.635Z,63.59
2023-01-17T06:56:59.530Z,63.20
2023-01-17T06:57:59.622Z,63.34
2023-01-17T06:58:59.506Z,63.14
2023-01-17T06:59:59.485Z,63.98
2023-01-17T07:00:59.588Z,60.63
2023-01-17T07:01:59.522Z,63.50
2023-01-17T07:02:59.490Z,63.49
2023-01-17T07:03:59.494Z,61.23
2023-01-17T07:04:59.493Z,65.76
2023-01-17T07:05:59.448Z,63.49
2023-01-17T07:06:59.454Z,63.06
2023-01-17T07:07:59.497Z,62.12
2023-01-17T07:08:59.433Z,62.15
2023-01-17T07:09:59.424Z,63.46
2023-01-17T07:10:59.415Z,62.06
2023-01-17T07:11:59.415Z,62.72
2023-01-17T07:12:59.402Z,62.92
2023-01-17T07:13:59.473Z,62.95
2023-01-17T07:14:59.401Z,61.97
2023-01-17T07:15:59.427Z,61.70
2023-01-17T07:16:59.369Z,62.83
2023-01-17T07:17:59.365Z,63.89
2023-01-17T07:18:59.368Z,63.30
2023-01-17T07:19:59.403Z,66.08
2023-01-17T07:20:59.349Z,64.28
2023-01-17T07:21:59.353Z,62.76
2023-01-17T07:22:59.361Z,60.78
2023-01-17T07:23:59.326Z,62.26
2023-01-17T07:24:59.323Z,63.72
2023-01-17T07:25:59.386Z,65.90
2023-01-17T07:26:59.324Z,62.66
2023-01-17T07:27:59.297Z,62.90
2023-01-17T07:28:59.297Z,63.32
2023-01-17T07:29:59.278Z,62.47
2023-01-17T07:30:59.309Z,64.27
2023-01-17T07:31:59.328Z,63.05
2023-01-17T07:32:59.297Z,63.72
2023-01-17T07:33:59.291Z,62.50
2023-01-17T07:34:59.240Z,61.02
2023-01-17T07:35:59.255Z,61.00
2023-01-17T07:36:59.254Z,63.63
2023-01-17T07:37:59.292Z,61.39
2023-01-17T07:38:59.217Z,61.85
2023-01-17T07:39:59.234Z,61.93
2023-01-17T07:40:59.216Z,62.80
2023-01-17T07:41:59.201Z,61.34
2023-01-17T07:42:59.197Z,60.56
2023-01-17T07:43:59.244Z,61.26
2023-01-17T07:44:59.193Z,63.59
2023-01-17T07:46:01.292Z,63.03
2023-01-17T07:46:59.163Z,59.74
2023-01-17T07:47:59.164Z,61.99
2023-01-17T07:48:59.149Z,61.14
2023-01-17T07:49:59.186Z,62.67
2023-01-17T07:50:59.133Z,62.49
2023-01-17T07:51:59.135Z,64.34
2023-01-17T07:52:59.132Z,62.97
2023-01-17T07:53:59.147Z,64.63
2023-01-17T07:54:59.132Z,65.10
2023-01-17T07:55:59.385Z,64.58
2023-01-17T07:56:59.089Z,64.16
2023-01-17T07:57:59.946Z,62.05
2023-01-17T07:58:59.105Z,62.50
2023-01-17T07:59:59.077Z,62.76
2023-01-17T08:00:59.198Z,64.33
2023-01-17T08:01:59.196Z,64.67
2023-01-17T08:02:59.051Z,63.77
2023-01-17T08:03:59.062Z,64.12
2023-01-17T08:04:59.043Z,62.07
2023-01-17T08:05:59.035Z,64.38
2023-01-17T08:06:59.025Z,63.13
2023-01-17T08:07:59.066Z,62.40
2023-01-17T08:08:59.065Z,62.57
2023-01-17T08:09:59.008Z,63.90
2023-01-17T08:10:59.005Z,64.40
2023-01-17T08:11:58.998Z,62.74
2023-01-17T08:12:58.987Z,63.89
2023-01-17T08:13:59.046Z,63.08
2023-01-17T08:14:58.988Z,63.80
2023-01-17T08:15:58.952Z,63.06
2023-01-17T08:16:58.958Z,64.21
2023-01-17T08:17:58.947Z,63.42
2023-01-17T08:18:58.936Z,61.62
2023-01-17T08:19:59.022Z,62.78
2023-01-17T08:20:58.931Z,61.36
2023-01-17T08:21:58.914Z,62.04
2023-01-17T08:22:58.926Z,63.18
2023-01-17T08:23:58.907Z,62.17
2023-01-17T08:24:58.908Z,60.12
2023-01-17T08:25:58.944Z,63.41
2023-01-17T08:26:58.886Z,62.22
2023-01-17T08:27:58.886Z,62.39
2023-01-17T08:28:58.869Z,62.47
2023-01-17T08:29:58.840Z,63.51
2023-01-17T08:30:58.872Z,62.93
2023-01-17T08:31:58.926Z,62.75
2023-01-17T08:32:58.833Z,62.66
2023-01-17T08:33:58.858Z,63.08
2023-01-17T08:34:58.820Z,65.19
2023-01-17T08:35:58.810Z,64.39
2023-01-17T08:36:58.862Z,63.81
2023-01-17T08:37:58.864Z,64.01
2023-01-17T08:38:58.817Z,62.53
2023-01-17T08:39:58.809Z,62.01
2023-01-17T08:40:58.775Z,62.06
2023-01-17T08:41:58.790Z,62.97
2023-01-17T08:42:58.787Z,63.27
2023-01-17T08:43:58.846Z,63.82
2023-01-17T08:44:58.753Z,62.79
2023-01-17T08:45:58.804Z,61.76
2023-01-17T08:46:58.758Z,63.48
2023-01-17T08:47:58.742Z,64.00
2023-01-17T08:48:58.752Z,64.73
2023-01-17T08:49:58.807Z,63.81
2023-01-17T08:50:58.727Z,61.92
2023-01-17T08:51:58.719Z,61.12
2023-01-17T08:53:00.861Z,60.80
2023-01-17T08:53:58.698Z,62.77
2023-01-17T08:54:58.694Z,60.72
2023-01-17T08:55:58.743Z,61.89
2023-01-17T08:56:58.677Z,61.38
2023-01-17T08:57:58.663Z,60.21
2023-01-17T08:58:58.668Z,61.49
2023-01-17T08:59:58.664Z,62.20
2023-01-17T09:00:58.797Z,61.55
2023-01-17T09:01:59.354Z,61.96
2023-01-17T09:02:58.632Z,61.14
2023-01-17T09:03:58.661Z,62.09
2023-01-17T09:04:58.621Z,63.84
2023-01-17T09:05:58.615Z,61.23
2023-01-17T09:06:58.613Z,62.95
2023-01-17T09:07:58.686Z,64.44
2023-01-17T09:08:58.576Z,63.52
2023-01-17T09:09:58.573Z,63.76
2023-01-17T09:10:58.579Z,62.57
2023-01-17T09:11:58.557Z,63.98
2023-01-17T09:12:58.586Z,61.65
2023-01-17T09:13:58.615Z,61.55
2023-01-17T09:14:58.549Z,61.50
2023-01-17T09:15:58.546Z,60.45
2023-01-17T09:16:58.537Z,59.82
2023-01-17T09:17:58.522Z,58.16
2023-01-17T09:18:58.505Z,59.70
2023-01-17T09:19:58.577Z,59.99
2023-01-17T09:20:58.523Z,58.96
2023-01-17T09:21:58.518Z,59.88
2023-01-17T09:22:58.484Z,59.53
2023-01-17T09:23:58.507Z,59.06
2023-01-17T09:24:58.475Z,60.95
2023-01-17T09:25:58.526Z,59.07
2023-01-17T09:26:58.475Z,58.23
2023-01-17T09:27:58.446Z,58.89
2023-01-17T09:28:58.592Z,58.35
2023-01-17T09:29:58.438Z,62.20
2023-01-17T09:30:58.516Z,61.80
2023-01-17T09:31:58.456Z,59.07
2023-01-17T09:32:58.389Z,60.34
2023-01-17T09:33:58.429Z,60.49
2023-01-17T09:34:58.409Z,58.25
2023-01-17T09:35:58.372Z,58.70
2023-01-17T09:36:58.419Z,61.62
2023-01-17T09:37:58.410Z,58.76
2023-01-17T09:38:58.386Z,59.67
2023-01-17T09:39:58.369Z,57.11
2023-01-17T09:40:58.390Z,57.99
2023-01-17T09:41:58.350Z,59.52
2023-01-17T09:42:58.353Z,59.71
2023-01-17T09:43:58.397Z,60.53
2023-01-17T09:44:58.343Z,59.70
2023-01-17T09:45:58.344Z,58.75
2023-01-17T09:46:58.335Z,59.00
2023-01-17T09:47:58.316Z,58.47
2023-01-17T09:48:58.299Z,58.20
2023-01-17T09:49:58.368Z,59.52
2023-01-17T09:50:58.297Z,58.13
2023-01-17T09:51:58.304Z,62.17
2023-01-17T09:52:58.259Z,64.63
2023-01-17T09:53:58.310Z,62.13
2023-01-17T09:54:58.251Z,62.38
2023-01-17T09:55:58.317Z,59.82
2023-01-17T09:56:58.289Z,60.40
2023-01-17T09:57:58.241Z,61.12
2023-01-17T09:58:58.220Z,60.03
2023-01-17T10:00:03.198Z,60.09
2023-01-17T10:00:59.299Z,59.50
2023-01-17T10:01:58.338Z,58.89
2023-01-17T10:02:58.305Z,59.52
2023-01-17T10:03:58.277Z,60.59
2023-01-17T10:04:58.211Z,59.75
2023-01-17T10:05:58.189Z,61.46
2023-01-17T10:06:58.637Z,60.53
2023-01-17T10:07:58.765Z,59.73
2023-01-17T10:08:58.177Z,59.42
2023-01-17T10:09:58.138Z,57.75
2023-01-17T10:10:58.146Z,63.76
2023-01-17T10:11:58.123Z,65.39
2023-01-17T10:12:58.185Z,62.31
2023-01-17T10:13:58.156Z,63.53
2023-01-17T10:14:58.113Z,59.56
2023-01-17T10:16:00.055Z,60.62
2023-01-17T10:17:01.779Z,58.07
2023-01-17T10:17:58.102Z,60.26
2023-01-17T10:18:58.176Z,58.21
2023-01-17T10:19:58.749Z,57.32
2023-01-17T10:20:58.099Z,59.64
2023-01-17T10:21:58.077Z,59.02
2023-01-17T10:22:58.046Z,59.39
2023-01-17T10:23:58.059Z,63.53
2023-01-17T10:24:58.101Z,60.13
2023-01-17T10:25:58.048Z,59.91
2023-01-17T10:26:58.034Z,60.15
2023-01-17T10:27:58.023Z,62.60
2023-01-17T10:29:06.660Z,61.59
2023-01-17T10:29:58.017Z,62.01
2023-01-17T10:30:58.148Z,59.05
2023-01-17T10:31:58.004Z,62.74
2023-01-17T10:32:58.038Z,60.03
2023-01-17T10:33:57.978Z,58.80
2023-01-17T10:34:57.959Z,59.67
2023-01-17T10:35:58.043Z,63.24
2023-01-17T10:36:58.094Z,57.69
2023-01-17T10:37:57.951Z,58.84
2023-01-17T10:38:57.959Z,57.28
2023-01-17T10:39:57.989Z,57.53
2023-01-17T10:40:57.930Z,57.81
2023-01-17T10:41:57.940Z,58.34
2023-01-17T10:42:57.952Z,57.84
2023-01-17T10:43:57.890Z,57.46
2023-01-17T10:44:57.879Z,56.78
2023-01-17T10:45:57.986Z,58.86
2023-01-17T10:46:57.889Z,56.68
2023-01-17T10:47:57.869Z,54.99
2023-01-17T10:48:57.926Z,55.72
2023-01-17T10:49:57.849Z,55.98
2023-01-17T10:50:57.874Z,61.40
2023-01-17T10:51:57.848Z,63.82
2023-01-17T10:52:57.877Z,58.43
2023-01-17T10:53:58.689Z,57.11
2023-01-17T10:54:57.878Z,58.17
2023-01-17T10:55:57.868Z,58.89
2023-01-17T10:56:57.867Z,57.94
2023-01-17T10:57:57.788Z,57.79
2023-01-17T10:58:57.841Z,57.70
2023-01-17T10:59:57.786Z,58.38
2023-01-17T11:00:57.964Z,60.33
2023-01-17T11:01:57.921Z,61.34
2023-01-17T11:02:57.803Z,62.71
2023-01-17T11:03:57.835Z,61.35
2023-01-17T11:04:57.776Z,58.32
2023-01-17T11:05:57.821Z,61.86
2023-01-17T11:06:58.531Z,60.44
2023-01-17T11:07:57.786Z,61.23
2023-01-17T11:08:57.730Z,59.03
2023-01-17T11:09:57.768Z,57.03
2023-01-17T11:10:57.697Z,58.30
2023-01-17T11:11:57.686Z,58.15
2023-01-17T11:12:58.247Z,57.74
2023-01-17T11:13:57.718Z,60.14
2023-01-17T11:14:57.717Z,57.98
2023-01-17T11:15:57.827Z,59.90
2023-01-17T11:17:04.837Z,59.08
2023-01-17T11:17:57.729Z,58.16
2023-01-17T11:18:57.861Z,57.97
2023-01-17T11:19:57.675Z,56.85
2023-01-17T11:20:57.724Z,56.77
2023-01-17T11:21:57.774Z,61.88
2023-01-17T11:22:57.697Z,59.09
2023-01-17T11:23:57.672Z,56.43
2023-01-17T11:24:57.815Z,58.43
2023-01-17T11:25:57.613Z,56.94
2023-01-17T11:26:57.624Z,57.34
2023-01-17T11:27:57.602Z,56.19
2023-01-17T11:28:57.598Z,55.63
2023-01-17T11:29:57.551Z,60.24
2023-01-17T11:30:57.651Z,58.24
2023-01-17T11:31:57.565Z,58.82
2023-01-17T11:32:57.569Z,58.16
2023-01-17T11:33:57.535Z,56.45
2023-01-17T11:34:57.519Z,55.16
2023-01-17T11:35:57.551Z,53.99
2023-01-17T11:36:57.578Z,54.54
2023-01-17T11:37:57.507Z,59.20
2023-01-17T11:38:57.507Z,56.82
2023-01-17T11:39:57.497Z,55.93
2023-01-17T11:40:57.476Z,55.55
2023-01-17T11:41:57.507Z,56.19
2023-01-17T11:42:57.538Z,55.91
2023-01-17T11:43:57.471Z,57.33
2023-01-17T11:44:57.460Z,57.33
2023-01-17T11:45:57.479Z,56.89
2023-01-17T11:46:57.423Z,57.14
2023-01-17T11:47:57.439Z,59.73
2023-01-17T11:48:57.496Z,59.98
2023-01-17T11:49:57.408Z,56.27
2023-01-17T11:50:57.419Z,56.93
2023-01-17T11:51:57.416Z,58.23
2023-01-17T11:52:57.400Z,59.85
2023-01-17T11:53:57.402Z,58.52
2023-01-17T11:54:57.422Z,56.90
2023-01-17T11:55:57.412Z,58.71
2023-01-17T11:56:57.404Z,58.33
2023-01-17T11:57:57.348Z,56.59
2023-01-17T11:58:57.359Z,57.77
2023-01-17T11:59:57.368Z,59.16
2023-01-17T12:00:57.453Z,61.71
2023-01-17T12:01:57.346Z,57.40
2023-01-17T12:02:57.326Z,59.16
2023-01-17T12:03:57.367Z,58.78
2023-01-17T12:04:57.358Z,59.67
2023-01-17T12:05:57.333Z,60.12
2023-01-17T12:06:58.570Z,59.83
2023-01-17T12:07:57.306Z,58.98
2023-01-17T12:08:57.297Z,57.15
2023-01-17T12:09:57.277Z,58.10
2023-01-17T12:10:57.295Z,60.02
2023-01-17T12:11:57.281Z,58.93
2023-01-17T12:12:57.518Z,59.92
2023-01-17T12:13:57.267Z,57.75
2023-01-17T12:14:57.236Z,58.22
2023-01-17T12:15:57.288Z,58.37
2023-01-17T12:16:57.235Z,61.56
2023-01-17T12:17:57.231Z,59.66
2023-01-17T12:18:57.297Z,60.44
2023-01-17T12:19:57.212Z,57.56
2023-01-17T12:20:57.196Z,61.25
2023-01-17T12:21:57.190Z,59.40
2023-01-17T12:22:57.219Z,61.94
2023-01-17T12:23:57.165Z,60.90
2023-01-17T12:24:57.233Z,61.24
2023-01-17T12:25:57.186Z,60.71
2023-01-17T12:26:57.222Z,66.74
2023-01-17T12:27:57.147Z,60.47
2023-01-17T12:28:57.154Z,60.03
2023-01-17T12:29:57.144Z,60.49
2023-01-17T12:30:57.210Z,59.67
2023-01-17T12:31:57.166Z,59.29
2023-01-17T12:32:57.102Z,58.45
2023-01-17T12:33:57.133Z,56.81
2023-01-17T12:34:57.126Z,57.52
2023-01-17T12:35:57.127Z,60.51
2023-01-17T12:36:57.138Z,61.94
2023-01-17T12:38:04.608Z,57.28
2023-01-17T12:38:58.112Z,56.83
2023-01-17T12:39:57.093Z,57.27
2023-01-17T12:40:57.086Z,57.04
2023-01-17T12:41:57.048Z,54.47
2023-01-17T12:42:57.177Z,57.06
2023-01-17T12:43:57.046Z,61.37
2023-01-17T12:44:57.073Z,58.16
2023-01-17T12:45:57.076Z,61.28
2023-01-17T12:46:57.037Z,62.57
2023-01-17T12:47:57.018Z,59.56
2023-01-17T12:48:57.085Z,59.03
2023-01-17T12:49:57.019Z,57.55
2023-01-17T12:50:57.015Z,58.37
2023-01-17T12:51:57.003Z,56.61